Time;durP1;ratioP1;P1;durP2;ratioP2;P2;SDS_P1;SDS_P2;PMS_P1;PMS_P2;Temp;Humidity;BMP_temperature;BMP_pressure;BME280_temperature;BME280_humidity;BME280_pressure;Samples;Min_cycle;Max_cycle;Signal;HPM_P1;HPM_P2
2022/01/11 00:00:14;;;;;;;19.50;10.82;;;;;;;1.84;68.50;98406.66;6032970;23;20282;-85
2022/01/11 00:02:43;;;;;;;31.40;14.57;;;;;;;1.86;68.65;98404.72;5998874;23;20301;-84
2022/01/11 00:05:18;;;;;;;25.30;12.45;;;;;;;1.82;68.65;98404.25;5976142;23;20669;-84
2022/01/11 00:07:44;;;;;;;23.92;12.55;;;;;;;1.83;69.13;98399.91;6031460;23;20147;-84
2022/01/11 00:10:13;;;;;;;26.25;12.10;;;;;;;1.84;68.87;98402.31;6033468;23;20178;-84
2022/01/11 00:12:38;;;;;;;21.65;10.68;;;;;;;1.79;68.76;98396.06;6009909;23;20249;-85
2022/01/11 00:15:04;;;;;;;22.40;10.68;;;;;;;1.84;68.55;98398.97;6007456;23;20166;-84
2022/01/11 00:17:30;;;;;;;24.48;11.40;;;;;;;1.77;68.58;98400.56;5974727;23;20598;-84
2022/01/11 00:19:55;;;;;;;29.75;12.70;;;;;;;1.74;68.54;98398.28;6008655;23;20178;-84
2022/01/11 00:22:27;;;;;;;31.35;11.95;;;;;;;1.77;68.38;98400.56;5974981;23;20186;-84
2022/01/11 00:24:52;;;;;;;19.58;9.95;;;;;;;1.70;68.59;98405.50;5975867;23;20320;-84
2022/01/11 00:27:18;;;;;;;22.33;10.73;;;;;;;1.72;68.25;98407.94;6030245;23;20257;-84
2022/01/11 00:29:48;;;;;;;26.88;12.45;;;;;;;1.61;67.85;98399.56;5975071;23;20186;-84
2022/01/11 00:32:17;;;;;;;22.27;11.00;;;;;;;1.62;68.29;98403.72;5975059;23;20273;-84
2022/01/11 00:34:54;;;;;;;19.73;10.38;;;;;;;1.61;68.62;98407.25;5975077;23;20182;-84
2022/01/11 00:37:20;;;;;;;22.95;11.70;;;;;;;1.57;68.37;98394.88;5976763;23;20171;-84
2022/01/11 00:39:46;;;;;;;20.15;10.52;;;;;;;1.54;68.25;98395.97;6007200;23;20649;-84
2022/01/11 00:42:16;;;;;;;23.27;10.73;;;;;;;1.49;68.88;98403.34;5997938;23;20634;-84
2022/01/11 00:44:42;;;;;;;21.63;10.45;;;;;;;1.53;68.33;98406.44;6021270;23;20269;-84
2022/01/11 00:47:08;;;;;;;20.92;9.02;;;;;;;1.54;68.49;98405.44;5996579;23;20233;-83
2022/01/11 00:49:34;;;;;;;20.67;10.15;;;;;;;1.50;68.41;98404.97;6031506;23;20335;-84
2022/01/11 00:52:00;;;;;;;18.95;9.40;;;;;;;1.52;68.80;98407.38;6021310;23;20246;-84
2022/01/11 00:54:26;;;;;;;20.27;8.10;;;;;;;1.48;68.46;98412.81;6030013;23;20186;-83
2022/01/11 00:56:52;;;;;;;14.77;7.00;;;;;;;1.44;68.14;98406.41;5996653;23;20147;-83
2022/01/11 00:59:17;;;;;;;14.45;6.38;;;;;;;1.47;68.01;98415.53;5990176;23;20275;-84
2022/01/11 01:01:42;;;;;;;12.95;6.20;;;;;;;1.43;68.40;98406.53;5997634;23;20198;-83
2022/01/11 01:04:08;;;;;;;13.57;7.00;;;;;;;1.46;68.56;98419.88;5997888;23;20182;-83
2022/01/11 01:06:34;;;;;;;14.15;7.22;;;;;;;1.44;68.32;98420.97;6006602;23;20257;-83
2022/01/11 01:08:59;;;;;;;13.60;6.47;;;;;;;1.44;68.82;98419.22;5996491;23;20357;-84
2022/01/11 01:11:25;;;;;;;15.68;6.40;;;;;;;1.44;68.56;98420.97;6007583;23;20653;-83
2022/01/11 01:13:50;;;;;;;14.18;6.38;;;;;;;1.45;68.90;98414.88;6030841;23;20241;-83
2022/01/11 01:16:16;;;;;;;18.42;7.40;;;;;;;1.48;68.69;98427.41;5995598;23;20095;-83
2022/01/11 01:18:41;;;;;;;17.10;7.70;;;;;;;1.45;68.41;98425.16;6030811;23;20197;-84
2022/01/11 01:21:07;;;;;;;16.10;8.05;;;;;;;1.44;68.80;98431.22;6031130;23;20181;-83
2022/01/11 01:23:33;;;;;;;19.38;8.20;;;;;;;1.45;68.56;98436.22;6031907;23;20143;-83
2022/01/11 01:25:58;;;;;;;16.50;7.53;;;;;;;1.43;68.53;98427.06;5996668;23;20179;-83
2022/01/11 01:28:24;;;;;;;19.27;9.55;;;;;;;1.46;68.48;98434.47;6031587;23;20514;-83
2022/01/11 01:30:52;;;;;;;18.08;8.70;;;;;;;1.45;69.05;98435.41;6030894;23;20257;-83
2022/01/11 01:33:18;;;;;;;14.23;7.40;;;;;;;1.46;68.87;98437.03;6007178;23;20284;-83
2022/01/11 01:35:50;;;;;;;15.38;6.35;;;;;;;1.47;69.12;98443.75;6006501;23;20265;-83
2022/01/11 01:38:21;;;;;;;17.90;7.22;;;;;;;1.47;68.56;98444.59;6021601;23;20264;-83
2022/01/11 01:40:47;;;;;;;11.57;6.15;;;;;;;1.46;68.27;98448.09;6031405;23;20334;-83
2022/01/11 01:43:13;;;;;;;16.77;7.30;;;;;;;1.46;68.79;98449.88;5996780;23;20151;-83
2022/01/11 01:45:40;;;;;;;16.58;8.15;;;;;;;1.43;68.56;98450.19;5973098;23;20261;-84
2022/01/11 01:48:07;;;;;;;18.92;7.30;;;;;;;1.43;68.47;98450.97;5997329;23;20080;-83
2022/01/11 01:50:33;;;;;;;20.20;7.43;;;;;;;1.44;68.88;98455.16;6030864;23;20170;-83
2022/01/11 01:53:01;;;;;;;20.10;7.75;;;;;;;1.42;69.03;98458.81;6030364;23;20118;-83
2022/01/11 01:55:26;;;;;;;17.42;7.65;;;;;;;1.42;68.79;98456.25;5996619;23;20268;-83
2022/01/11 01:57:52;;;;;;;17.63;7.75;;;;;;;1.41;68.34;98454.66;6029815;23;20237;-83
2022/01/11 02:00:23;;;;;;;17.20;8.82;;;;;;;1.27;68.54;98449.13;5994214;23;20198;-83
2022/01/11 02:02:49;;;;;;;17.63;8.45;;;;;;;1.36;68.77;98449.97;6018764;23;20609;-83
2022/01/11 02:05:14;;;;;;;16.30;7.15;;;;;;;1.31;68.43;98447.06;5971782;23;20174;-82
2022/01/11 02:07:40;;;;;;;14.50;6.57;;;;;;;1.30;68.64;98448.84;6029845;23;20182;-83
2022/01/11 02:10:07;;;;;;;13.43;6.75;;;;;;;1.25;68.88;98445.94;6031102;23;20546;-82
2022/01/11 02:12:32;;;;;;;13.25;5.93;;;;;;;1.31;68.58;98450.44;5997275;23;20182;-83
2022/01/11 02:14:58;;;;;;;15.55;6.03;;;;;;;1.29;68.57;98449.78;5997010;23;20589;-82
2022/01/11 02:17:27;;;;;;;14.50;6.07;;;;;;;1.22;69.69;98443.66;6030971;23;20334;-83
2022/01/11 02:19:56;;;;;;;10.93;5.65;;;;;;;1.27;68.58;98458.59;6030688;23;20245;-83
2022/01/11 02:22:25;;;;;;;15.68;6.28;;;;;;;1.24;68.53;98452.00;5973756;23;20144;-83
2022/01/11 02:24:52;;;;;;;13.05;6.40;;;;;;;1.33;68.92;98452.84;5996891;23;20661;-83
2022/01/11 02:27:17;;;;;;;11.55;6.55;;;;;;;1.33;68.68;98460.53;5996551;23;20530;-82
2022/01/11 02:29:43;;;;;;;16.52;6.60;;;;;;;1.35;69.14;98457.81;5996455;23;20250;-82
2022/01/11 02:32:08;;;;;;;14.60;6.70;;;;;;;1.33;68.78;98455.41;5996585;23;20194;-82
2022/01/11 02:34:34;;;;;;;15.82;6.63;;;;;;;1.33;68.86;98452.06;5997135;23;20538;-83
2022/01/11 02:36:59;;;;;;;15.68;6.90;;;;;;;1.34;68.88;98462.16;6031199;23;20149;-83
2022/01/11 02:39:25;;;;;;;15.82;7.45;;;;;;;1.31;68.53;98458.13;6032005;23;20230;-83
2022/01/11 02:41:54;;;;;;;20.52;8.32;;;;;;;1.29;68.60;98472.88;5998520;23;20084;-82
2022/01/11 02:44:20;;;;;;;23.92;10.00;;;;;;;1.24;68.84;98467.41;6031987;23;20079;-82
2022/01/11 02:46:45;;;;;;;17.85;8.00;;;;;;;1.09;68.99;98472.28;6032203;23;20170;-83
2022/01/11 02:49:11;;;;;;;20.83;9.48;;;;;;;0.99;68.73;98475.91;6031843;23;20323;-83
2022/01/11 02:51:37;;;;;;;18.40;8.52;;;;;;;0.95;68.77;98472.03;6032688;23;20144;-82
2022/01/11 02:54:05;;;;;;;17.67;8.15;;;;;;;1.01;69.04;98466.28;5998713;23;20136;-83
2022/01/11 02:56:30;;;;;;;21.75;8.57;;;;;;;1.06;68.89;98464.09;6056046;23;20162;-83
2022/01/11 02:58:55;;;;;;;17.90;7.60;;;;;;;1.05;69.55;98475.31;6032070;23;20182;-82
2022/01/11 03:01:21;;;;;;;16.10;8.38;;;;;;;1.09;68.98;98476.63;5998304;23;20701;-83
2022/01/11 03:03:47;;;;;;;16.15;7.15;;;;;;;1.10;69.05;98485.94;5998627;23;20586;-83
2022/01/11 03:06:12;;;;;;;16.42;7.40;;;;;;;1.06;68.81;98476.91;6031785;23;20256;-83
2022/01/11 03:08:42;;;;;;;13.10;5.88;;;;;;;0.95;68.75;98477.97;6029943;23;20241;-83
2022/01/11 03:11:08;;;;;;;18.17;6.30;;;;;;;1.04;69.26;98483.94;6032244;23;20256;-83
2022/01/11 03:13:35;;;;;;;15.25;6.38;;;;;;;0.98;69.36;98475.13;6031998;23;20197;-83
2022/01/11 03:16:01;;;;;;;13.52;6.07;;;;;;;0.96;68.98;98477.03;5998037;23;20265;-83
2022/01/11 03:18:27;;;;;;;12.38;5.65;;;;;;;1.03;68.96;98484.91;5998424;23;20188;-82
2022/01/11 03:20:53;;;;;;;12.90;5.28;;;;;;;0.96;68.76;98479.59;5998483;23;20196;-83
2022/01/11 03:23:19;;;;;;;12.65;6.03;;;;;;;1.01;69.21;98476.56;6031825;23;20547;-83
2022/01/11 03:25:45;;;;;;;13.00;5.78;;;;;;;1.01;69.22;98481.69;6031839;23;20115;-83
2022/01/11 03:28:11;;;;;;;16.23;7.63;;;;;;;1.04;69.00;98486.53;6031997;23;20249;-82
2022/01/11 03:30:37;;;;;;;18.00;6.75;;;;;;;1.00;68.95;98486.00;6008301;23;20257;-83
2022/01/11 03:33:03;;;;;;;15.10;7.13;;;;;;;0.99;69.19;98486.16;6032354;23;20082;-83
2022/01/11 03:35:29;;;;;;;14.77;6.82;;;;;;;1.01;68.75;98489.38;5997366;23;20430;-83
2022/01/11 03:37:55;;;;;;;14.35;6.38;;;;;;;0.98;69.30;98484.53;6007661;23;20174;-83
2022/01/11 03:40:24;;;;;;;12.20;5.97;;;;;;;0.99;68.87;98489.53;6032316;23;20219;-83
2022/01/11 03:42:50;;;;;;;13.48;6.32;;;;;;;0.97;68.39;98485.50;6030830;23;20573;-83
2022/01/11 03:45:17;;;;;;;15.48;6.47;;;;;;;0.96;68.61;98497.53;6031954;23;20209;-82
2022/01/11 03:47:43;;;;;;;16.48;6.68;;;;;;;1.00;69.29;98491.16;5998294;23;20226;-83
2022/01/11 03:50:10;;;;;;;14.90;6.47;;;;;;;0.97;68.90;98495.78;6021985;23;20195;-83
2022/01/11 03:52:35;;;;;;;14.60;7.00;;;;;;;0.96;69.49;98497.53;6032179;23;20226;-83
2022/01/11 03:55:06;;;;;;;23.95;7.43;;;;;;;0.96;69.34;98505.22;5997595;23;20290;-83
2022/01/11 03:57:33;;;;;;;15.88;8.10;;;;;;;0.89;69.33;98497.34;5974630;23;20658;-83
2022/01/11 04:00:00;;;;;;;16.20;6.40;;;;;;;0.87;68.74;98511.25;5998102;23;20330;-83
2022/01/11 04:02:26;;;;;;;16.00;7.15;;;;;;;0.84;69.50;98507.22;5997828;23;20173;-83
2022/01/11 04:04:54;;;;;;;26.35;8.32;;;;;;;0.78;69.28;98507.81;6031386;23;20048;-83
2022/01/11 04:07:22;;;;;;;25.52;8.40;;;;;;;0.73;69.46;98508.25;5997648;23;20180;-83
2022/01/11 04:09:49;;;;;;;18.08;7.43;;;;;;;0.67;69.35;98510.59;5998064;23;20325;-83
2022/01/11 04:12:15;;;;;;;16.90;7.30;;;;;;;0.73;69.69;98518.50;5974785;23;20574;-83
2022/01/11 04:14:40;;;;;;;18.52;7.45;;;;;;;0.74;69.47;98525.25;5974351;23;20160;-83
2022/01/11 04:17:06;;;;;;;22.30;6.93;;;;;;;0.71;69.27;98517.84;5997461;23;20190;-83
2022/01/11 04:19:31;;;;;;;17.90;6.95;;;;;;;0.68;70.59;98520.69;6031582;23;20127;-83
2022/01/11 04:21:57;;;;;;;18.02;7.25;;;;;;;0.73;70.31;98521.06;5997367;23;20347;-83
2022/01/11 04:24:23;;;;;;;22.58;8.50;;;;;;;0.68;69.76;98525.03;6032134;23;20153;-83
2022/01/11 04:26:49;;;;;;;26.10;9.93;;;;;;;0.68;70.69;98525.81;5997648;23;20628;-83
2022/01/11 04:29:14;;;;;;;20.30;7.75;;;;;;;0.68;69.78;98528.41;6022272;23;20185;-83
2022/01/11 04:31:40;;;;;;;20.10;6.75;;;;;;;0.65;69.74;98522.75;6031880;23;20205;-83
2022/01/11 04:34:06;;;;;;;17.20;7.20;;;;;;;0.73;69.52;98530.53;5997980;23;20178;-83
2022/01/11 04:36:33;;;;;;;20.48;6.80;;;;;;;0.65;69.18;98523.59;5997481;23;20151;-83
2022/01/11 04:38:59;;;;;;;19.17;6.95;;;;;;;0.76;70.14;98530.22;5998269;23;20644;-83
2022/01/11 04:41:25;;;;;;;19.70;7.03;;;;;;;0.74;70.30;98532.16;5997986;23;20057;-83
2022/01/11 04:43:50;;;;;;;30.27;8.75;;;;;;;0.78;70.12;98543.72;5998105;23;20257;-83
2022/01/11 04:46:18;;;;;;;21.55;7.40;;;;;;;0.80;70.41;98546.91;6031665;23;20525;-84
2022/01/11 04:48:45;;;;;;;17.70;6.45;;;;;;;0.89;70.75;98543.50;5975012;23;20162;-83
2022/01/11 04:51:11;;;;;;;16.83;7.10;;;;;;;0.89;70.56;98540.09;6031689;23;20166;-83
2022/01/11 04:53:36;;;;;;;20.15;7.38;;;;;;;0.96;70.99;98542.88;5997776;23;20308;-84
2022/01/11 04:56:02;;;;;;;22.00;7.25;;;;;;;0.97;70.53;98541.94;5997652;23;20079;-83
2022/01/11 04:58:28;;;;;;;41.53;9.35;;;;;;;0.95;71.05;98548.97;5984194;23;20266;-83
2022/01/11 05:00:53;;;;;;;69.95;19.25;;;;;;;0.91;71.69;98543.34;5950155;23;20188;-84
2022/01/11 05:03:22;;;;;;;61.05;21.40;;;;;;;0.99;71.67;98545.16;5986852;23;20239;-84
2022/01/11 05:05:47;;;;;;;31.45;10.35;;;;;;;1.08;71.85;98549.38;6009138;23;20339;-84
2022/01/11 05:08:13;;;;;;;27.83;8.93;;;;;;;1.16;71.16;98554.56;5952681;23;20168;-84
2022/01/11 05:10:42;;;;;;;22.10;8.73;;;;;;;1.19;70.83;98556.84;5978872;23;20075;-84
2022/01/11 05:13:16;;;;;;;27.80;8.45;;;;;;;1.07;70.65;98555.47;5988481;23;20282;-84
2022/01/11 05:15:41;;;;;;;23.83;7.88;;;;;;;1.25;70.01;98551.13;5978102;23;20164;-85
2022/01/11 05:18:08;;;;;;;39.60;8.45;;;;;;;1.24;70.10;98559.75;5978562;23;20165;-84
2022/01/11 05:20:34;;;;;;;27.90;9.38;;;;;;;1.26;70.08;98549.34;6012097;23;20153;-85
2022/01/11 05:23:03;;;;;;;21.65;8.45;;;;;;;1.29;69.72;98557.56;5956152;23;20158;-85
2022/01/11 05:25:28;;;;;;;21.08;9.32;;;;;;;1.26;70.24;98554.47;5978346;23;20356;-85
2022/01/11 05:27:54;;;;;;;30.48;10.55;;;;;;;1.19;70.99;98556.84;5978789;23;20314;-85
2022/01/11 05:30:20;;;;;;;26.33;9.82;;;;;;;1.25;70.57;98566.50;5988295;23;20239;-85
2022/01/11 05:32:45;;;;;;;25.02;10.45;;;;;;;1.25;71.26;98566.50;5978852;23;20166;-84
2022/01/11 05:35:14;;;;;;;26.20;10.57;;;;;;;1.29;70.83;98567.81;5955971;23;20179;-84
2022/01/11 05:37:40;;;;;;;27.00;11.00;;;;;;;1.28;70.78;98570.53;5979394;23;20191;-85
2022/01/11 05:40:09;;;;;;;29.70;9.68;;;;;;;1.33;70.54;98575.22;5988932;23;20140;-85
2022/01/11 05:42:35;;;;;;;36.28;11.20;;;;;;;1.31;70.97;98571.03;5979304;23;20198;-85
2022/01/11 05:45:01;;;;;;;23.00;7.90;;;;;;;1.39;70.92;98575.41;6012045;23;20521;-85
2022/01/11 05:47:27;;;;;;;18.90;9.05;;;;;;;1.39;71.01;98579.72;5988783;23;20278;-85
2022/01/11 05:49:52;;;;;;;34.60;9.95;;;;;;;1.37;71.26;98579.06;6013009;23;20490;-85
2022/01/11 05:52:18;;;;;;;60.10;9.65;;;;;;;1.47;70.74;98580.63;5989208;23;20254;-85
2022/01/11 05:54:43;;;;;;;21.63;7.88;;;;;;;1.40;71.47;98589.06;6024481;23;20202;-85
2022/01/11 05:57:09;;;;;;;45.75;8.98;;;;;;;1.41;70.80;98590.66;6037550;23;20669;-85
2022/01/11 05:59:34;;;;;;;29.58;8.38;;;;;;;1.35;71.24;98591.25;6036774;23;20212;-85
2022/01/11 06:02:00;;;;;;;88.10;14.88;;;;;;;1.36;70.81;98591.13;6003771;23;20257;-85
2022/01/11 06:04:25;;;;;;;52.78;16.67;;;;;;;1.31;71.05;98589.00;5979250;23;20132;-85
2022/01/11 06:06:51;;;;;;;51.08;14.60;;;;;;;1.42;71.12;98602.53;6010983;23;20230;-85
2022/01/11 06:09:17;;;;;;;33.70;14.77;;;;;;;1.46;70.87;98594.38;6003332;23;20260;-85
2022/01/11 06:11:42;;;;;;;40.03;15.93;;;;;;;1.48;70.55;98607.06;6003032;23;20735;-85
2022/01/11 06:14:08;;;;;;;44.67;15.52;;;;;;;1.45;71.14;98592.75;6014038;23;20206;-84
2022/01/11 06:16:33;;;;;;;44.15;15.20;;;;;;;1.53;70.68;98593.81;6007014;23;20177;-85
2022/01/11 06:18:59;;;;;;;44.58;17.20;;;;;;;1.53;70.37;98596.38;6038454;23;20257;-85
2022/01/11 06:21:25;;;;;;;49.53;20.02;;;;;;;1.62;70.29;98603.16;5980392;23;20220;-84
2022/01/11 06:23:50;;;;;;;52.20;23.60;;;;;;;1.50;70.90;98605.16;6003876;23;20173;-84
2022/01/11 06:26:16;;;;;;;49.38;21.20;;;;;;;1.53;70.19;98604.88;6012279;23;20281;-84
2022/01/11 06:28:42;;;;;;;44.28;18.33;;;;;;;1.61;69.92;98596.38;6003736;23;20261;-85
2022/01/11 06:31:08;;;;;;;35.33;16.23;;;;;;;1.64;70.20;98596.09;6036856;23;20593;-84
2022/01/11 06:33:34;;;;;;;44.75;15.82;;;;;;;1.61;70.17;98601.53;6037839;23;20233;-84
2022/01/11 06:35:59;;;;;;;28.70;12.50;;;;;;;1.58;69.69;98587.25;6002873;23;20175;-84
2022/01/11 06:38:24;;;;;;;36.15;13.63;;;;;;;1.64;70.15;98598.66;6037575;23;20296;-85
2022/01/11 06:40:50;;;;;;;30.25;11.88;;;;;;;1.63;69.71;98600.44;6003487;23;20645;-84
2022/01/11 06:43:15;;;;;;;28.42;11.93;;;;;;;1.53;69.31;98592.03;6003404;23;20123;-84
2022/01/11 06:45:41;;;;;;;25.25;11.73;;;;;;;1.53;69.54;98606.63;5980181;23;20264;-84
2022/01/11 06:48:08;;;;;;;26.15;10.75;;;;;;;1.52;69.63;98595.53;5979983;23;20112;-84
2022/01/11 06:50:33;;;;;;;22.55;8.75;;;;;;;1.53;69.15;98602.28;6013172;23;20303;-84
2022/01/11 06:52:59;;;;;;;21.83;8.63;;;;;;;1.47;69.02;98597.75;6002933;23;20600;-84
2022/01/11 06:55:25;;;;;;;20.65;7.80;;;;;;;1.38;69.33;98607.16;6002466;23;20637;-84
2022/01/11 06:57:50;;;;;;;16.38;7.82;;;;;;;1.38;69.60;98602.03;6003346;23;20195;-84
2022/01/11 07:00:17;;;;;;;15.70;7.20;;;;;;;1.34;69.12;98600.72;6003134;23;20165;-84
2022/01/11 07:02:46;;;;;;;17.23;6.35;;;;;;;1.33;68.90;98600.88;6036858;23;20248;-84
2022/01/11 07:05:12;;;;;;;13.32;6.18;;;;;;;1.30;68.82;98605.34;6036332;23;20270;-84
2022/01/11 07:07:37;;;;;;;15.70;6.95;;;;;;;1.29;68.54;98603.72;6002047;23;20651;-84
2022/01/11 07:10:03;;;;;;;18.13;7.18;;;;;;;1.26;69.09;98598.09;6026025;23;20539;-84
2022/01/11 07:12:29;;;;;;;19.92;7.95;;;;;;;1.22;69.58;98597.59;6036271;23;20210;-84
2022/01/11 07:14:54;;;;;;;16.95;7.43;;;;;;;1.20;68.35;98604.63;5976159;23;20233;-84
2022/01/11 07:17:21;;;;;;;17.33;7.78;;;;;;;1.12;68.95;98609.69;6002546;23;20079;-84
2022/01/11 07:19:46;;;;;;;15.77;7.18;;;;;;;1.13;68.68;98619.00;6002213;23;20570;-84
2022/01/11 07:22:12;;;;;;;16.42;7.75;;;;;;;1.09;68.54;98607.44;6002326;23;20082;-84
2022/01/11 07:24:37;;;;;;;16.02;6.93;;;;;;;1.08;69.22;98605.81;6001867;23;20807;-84
2022/01/11 07:27:03;;;;;;;20.10;8.15;;;;;;;1.05;68.89;98611.25;6036222;23;20728;-84
2022/01/11 07:29:28;;;;;;;18.40;7.72;;;;;;;1.07;69.09;98614.47;6000734;23;20253;-84
2022/01/11 07:31:54;;;;;;;14.38;6.97;;;;;;;1.02;69.02;98611.53;6002053;23;20182;-84
2022/01/11 07:34:19;;;;;;;15.52;6.95;;;;;;;1.09;68.49;98622.81;6001847;23;20173;-84
2022/01/11 07:36:44;;;;;;;13.57;6.07;;;;;;;1.10;68.54;98629.56;5978291;23;20151;-84
2022/01/11 07:39:12;;;;;;;15.07;6.72;;;;;;;1.03;68.57;98628.53;6035638;23;20170;-84
2022/01/11 07:41:38;;;;;;;15.45;7.18;;;;;;;1.07;68.72;98625.53;6035630;23;20300;-84
2022/01/11 07:44:04;;;;;;;15.95;6.28;;;;;;;1.15;68.54;98631.66;6036339;23;20143;-84
2022/01/11 07:46:30;;;;;;;14.45;6.97;;;;;;;1.15;68.60;98644.50;5978723;23;20098;-84
2022/01/11 07:48:57;;;;;;;19.13;8.02;;;;;;;1.03;68.70;98646.47;5978634;23;20256;-83
2022/01/11 07:51:22;;;;;;;16.48;7.10;;;;;;;1.07;68.95;98645.25;5997705;23;20002;-84
2022/01/11 07:53:48;;;;;;;15.43;7.22;;;;;;;1.15;69.08;98642.75;6000744;23;20522;-84
2022/01/11 07:56:14;;;;;;;24.05;10.68;;;;;;;0.86;68.60;98651.47;6035158;23;20146;-83
2022/01/11 07:58:39;;;;;;;23.20;11.05;;;;;;;1.07;68.59;98650.38;6001429;23;20163;-84
2022/01/11 08:01:05;;;;;;;22.20;12.05;;;;;;;1.12;68.41;98648.97;5977897;23;20237;-84
2022/01/11 08:03:30;;;;;;;29.05;13.43;;;;;;;1.01;68.70;98650.94;6000832;23;20361;-84
2022/01/11 08:05:55;;;;;;;34.65;16.38;;;;;;;1.03;68.79;98660.13;6024698;23;20328;-83
2022/01/11 08:08:21;;;;;;;33.25;16.20;;;;;;;1.03;68.55;98659.28;6035142;23;20143;-84
2022/01/11 08:10:46;;;;;;;42.67;17.88;;;;;;;1.01;69.04;98663.78;6011775;23;20578;-83
2022/01/11 08:13:11;;;;;;;38.40;18.55;;;;;;;1.03;68.98;98675.50;5978956;23;20213;-84
2022/01/11 08:15:37;;;;;;;38.75;18.17;;;;;;;1.10;69.39;98673.19;6001518;23;20271;-84
2022/01/11 08:18:08;;;;;;;53.35;21.65;;;;;;;1.08;69.15;98677.63;6002625;23;20281;-83
2022/01/11 08:20:33;;;;;;;36.53;15.38;;;;;;;1.06;69.20;98672.66;5978376;23;20275;-84
2022/01/11 08:22:59;;;;;;;28.25;13.68;;;;;;;1.12;69.25;98682.31;6012118;23;20163;-84
2022/01/11 08:25:24;;;;;;;33.42;13.10;;;;;;;1.11;69.20;98679.91;6000829;23;20186;-84
2022/01/11 08:27:50;;;;;;;26.08;12.10;;;;;;;1.18;69.71;98678.34;5977554;23;20644;-84
2022/01/11 08:30:16;;;;;;;35.70;16.00;;;;;;;1.18;68.98;98682.69;6011815;23;20166;-83
2022/01/11 08:32:42;;;;;;;38.28;15.55;;;;;;;1.25;69.50;98687.09;6001334;23;20173;-83
2022/01/11 08:35:08;;;;;;;29.92;13.98;;;;;;;1.29;69.69;98679.91;6010666;23;20522;-84
2022/01/11 08:37:33;;;;;;;30.00;12.60;;;;;;;1.30;69.57;98682.34;6001330;23;20609;-84
2022/01/11 08:39:59;;;;;;;27.00;10.75;;;;;;;1.39;69.24;98690.06;6010289;23;20307;-84
2022/01/11 08:42:25;;;;;;;30.15;11.10;;;;;;;1.37;69.17;98692.81;5976191;23;20127;-83
2022/01/11 08:44:51;;;;;;;26.65;11.85;;;;;;;1.44;69.82;98682.75;5999139;23;20186;-83
2022/01/11 08:47:17;;;;;;;20.58;9.77;;;;;;;1.48;69.78;98686.63;5975417;23;20178;-83
2022/01/11 08:49:42;;;;;;;21.48;8.88;;;;;;;1.49;69.92;98683.94;5998486;23;20248;-83
2022/01/11 08:52:09;;;;;;;27.48;11.52;;;;;;;1.50;69.38;98688.09;5999170;23;20198;-83
2022/01/11 08:54:34;;;;;;;23.85;10.98;;;;;;;1.44;69.25;98693.84;6009041;23;20197;-82
2022/01/11 08:57:00;;;;;;;35.20;14.52;;;;;;;1.46;69.68;98694.50;5974719;23;20620;-83
2022/01/11 08:59:26;;;;;;;52.17;19.67;;;;;;;1.52;69.98;98698.22;6008582;23;20229;-83
2022/01/11 09:01:54;;;;;;;39.85;16.02;;;;;;;1.50;69.79;98700.13;6032381;23;20260;-83
2022/01/11 09:04:21;;;;;;;37.95;16.42;;;;;;;1.67;69.65;98707.00;6033757;23;20080;-84
2022/01/11 09:06:46;;;;;;;39.05;18.25;;;;;;;1.72;69.88;98710.91;6009623;23;20241;-83
2022/01/11 09:09:11;;;;;;;47.15;20.40;;;;;;;1.75;69.92;98705.44;6033932;23;20234;-84
2022/01/11 09:11:37;;;;;;;38.78;17.25;;;;;;;1.82;69.42;98712.41;6058595;23;20120;-84
2022/01/11 09:14:03;;;;;;;30.92;14.90;;;;;;;1.83;69.50;98701.19;6034153;23;20308;-84
2022/01/11 09:16:28;;;;;;;28.63;14.32;;;;;;;1.89;69.58;98712.63;6024186;23;20190;-84
2022/01/11 09:18:53;;;;;;;31.02;14.57;;;;;;;1.82;69.75;98707.28;6033987;23;20549;-84
2022/01/11 09:21:22;;;;;;;44.72;21.02;;;;;;;1.92;69.60;98708.94;5999899;23;20615;-84
2022/01/11 09:23:48;;;;;;;28.23;13.30;;;;;;;1.99;69.63;98704.81;6000149;23;20087;-84
2022/01/11 09:26:14;;;;;;;25.58;12.02;;;;;;;2.03;69.70;98714.63;6009944;23;20172;-84
2022/01/11 09:28:40;;;;;;;22.65;9.45;;;;;;;2.04;70.11;98713.69;6009216;23;20177;-84
2022/01/11 09:31:05;;;;;;;17.80;8.93;;;;;;;2.11;69.61;98711.31;5999479;23;20263;-84
2022/01/11 09:33:31;;;;;;;23.13;10.30;;;;;;;2.10;70.24;98719.16;5999475;23;20083;-84
2022/01/11 09:35:56;;;;;;;21.77;10.15;;;;;;;2.12;70.19;98712.09;5974586;23;20194;-84
2022/01/11 09:38:23;;;;;;;23.42;10.88;;;;;;;2.24;70.28;98719.41;5975682;23;20151;-84
2022/01/11 09:40:51;;;;;;;23.55;10.25;;;;;;;2.24;70.46;98716.84;5975324;23;20585;-84
2022/01/11 09:43:21;;;;;;;21.50;9.13;;;;;;;2.35;69.84;98705.50;6032942;23;20249;-84
2022/01/11 09:45:47;;;;;;;25.05;11.00;;;;;;;2.48;70.21;98719.69;6032730;23;20202;-84
2022/01/11 09:48:12;;;;;;;17.85;9.50;;;;;;;2.48;69.79;98717.91;5999029;23;20236;-84
2022/01/11 09:50:38;;;;;;;20.30;9.93;;;;;;;2.58;69.66;98721.16;5998417;23;20262;-84
2022/01/11 09:53:04;;;;;;;20.92;9.15;;;;;;;2.67;69.04;98727.16;6032111;23;20247;-84
2022/01/11 09:55:29;;;;;;;15.60;7.97;;;;;;;2.66;69.79;98730.69;5998242;23;20272;-84
2022/01/11 09:57:55;;;;;;;19.58;9.32;;;;;;;2.65;69.76;98726.50;6008578;23;20232;-85
2022/01/11 10:00:21;;;;;;;17.38;9.73;;;;;;;2.74;69.82;98729.91;5998449;23;20267;-85
2022/01/11 10:02:47;;;;;;;19.63;8.77;;;;;;;2.74;69.27;98725.59;6032680;23;20613;-84
2022/01/11 10:05:13;;;;;;;24.35;12.48;;;;;;;2.79;69.30;98722.53;5998473;23;20171;-85
2022/01/11 10:07:40;;;;;;;20.60;9.50;;;;;;;2.87;69.48;98721.75;6008953;23;20261;-85
2022/01/11 10:10:17;;;;;;;25.33;13.55;;;;;;;2.85;70.15;98721.91;5998984;23;20593;-85
2022/01/11 10:12:48;;;;;;;26.92;12.65;;;;;;;2.98;69.52;98719.72;5998206;23;20276;-85
2022/01/11 10:15:14;;;;;;;17.40;8.80;;;;;;;3.05;69.36;98727.59;5996960;23;20325;-85
2022/01/11 10:17:42;;;;;;;18.80;9.13;;;;;;;3.04;69.71;98728.56;5973876;23;20301;-84
2022/01/11 10:20:12;;;;;;;20.13;9.25;;;;;;;3.07;69.45;98728.25;6031342;23;20371;-84
2022/01/11 10:22:48;;;;;;;30.60;15.40;;;;;;;3.06;69.40;98729.19;5997693;23;20249;-84
2022/01/11 10:25:13;;;;;;;23.25;12.43;;;;;;;3.27;69.43;98733.09;6033141;23;20182;-84
2022/01/11 10:27:39;;;;;;;16.33;8.15;;;;;;;3.38;69.33;98735.38;6032693;23;20448;-84
2022/01/11 10:30:13;;;;;;;24.48;12.13;;;;;;;3.25;69.81;98735.03;5998904;23;20166;-85
2022/01/11 10:32:45;;;;;;;35.33;16.10;;;;;;;3.33;69.53;98735.84;6008440;23;20151;-84
2022/01/11 10:35:15;;;;;;;22.67;10.15;;;;;;;3.47;70.04;98734.41;5998636;23;20342;-84
2022/01/11 10:37:46;;;;;;;34.30;19.05;;;;;;;3.44;69.22;98739.88;5998482;23;20325;-84
2022/01/11 10:40:19;;;;;;;21.73;10.70;;;;;;;3.38;69.78;98740.53;6032336;23;20199;-84
2022/01/11 10:42:51;;;;;;;22.02;9.45;;;;;;;3.45;69.80;98738.91;6032236;23;20289;-84
2022/01/11 10:45:28;;;;;;;31.20;16.27;;;;;;;3.35;69.84;98731.34;5998932;23;20209;-84
2022/01/11 10:47:59;;;;;;;41.47;23.70;;;;;;;3.45;70.39;98744.06;6032486;23;20226;-85
2022/01/11 10:50:38;;;;;;;28.73;16.38;;;;;;;3.47;70.19;98738.75;6031864;23;20185;-84
2022/01/11 10:53:11;;;;;;;32.72;18.75;;;;;;;3.48;70.10;98742.94;5998801;23;20258;-84
2022/01/11 10:55:37;;;;;;;26.73;13.60;;;;;;;3.51;70.35;98735.72;6031975;23;20186;-84
2022/01/11 10:58:11;;;;;;;32.88;17.90;;;;;;;3.56;70.07;98733.47;5998606;23;20090;-84
2022/01/11 11:00:44;;;;;;;41.38;22.38;;;;;;;3.52;70.34;98736.50;6009507;23;20241;-84
2022/01/11 11:03:15;;;;;;;28.55;15.32;;;;;;;3.63;69.91;98741.34;6034006;23;20143;-84
2022/01/11 11:05:45;;;;;;;34.90;14.85;;;;;;;3.65;70.33;98736.03;5976591;23;20589;-84
2022/01/11 11:08:12;;;;;;;23.70;13.52;;;;;;;3.76;69.81;98743.44;6023951;23;20680;-84
2022/01/11 11:10:47;;;;;;;28.00;13.93;;;;;;;3.63;70.47;98725.09;6058607;23;20292;-84
2022/01/11 11:13:33;;;;;;;21.95;10.73;;;;;;;3.65;70.59;98747.16;6000502;23;20617;-84
2022/01/11 11:16:11;;;;;;;28.60;11.70;;;;;;;3.65;70.80;98749.72;6028961;23;20579;-84
2022/01/11 11:18:48;;;;;;;29.02;15.45;;;;;;;3.71;70.85;98740.53;5976721;23;20194;-85
2022/01/11 11:21:21;;;;;;;34.10;17.20;;;;;;;3.81;70.32;98743.75;5976523;23;20182;-84
2022/01/11 11:23:48;;;;;;;35.83;20.35;;;;;;;3.98;70.21;98738.59;6001554;23;20260;-85
2022/01/11 11:26:15;;;;;;;26.75;13.13;;;;;;;4.00;70.81;98734.09;5976677;23;20169;-85